sensor_id;sensor_type;location;lat;lon;timestamp;pressure;altitude;pressure_sealevel;temperature
22828;BMP180;11580;52.562;13.418;2022-09-24T00:01:23;100556.00;;;16.60
22828;BMP180;11580;52.562;13.418;2022-09-24T00:03:53;100561.00;;;16.60
22828;BMP180;11580;52.562;13.418;2022-09-24T00:06:22;100552.00;;;16.60
22828;BMP180;11580;52.562;13.418;2022-09-24T00:08:54;100552.00;;;16.60
22828;BMP180;11580;52.562;13.418;2022-09-24T00:11:23;100562.00;;;16.50
22828;BMP180;11580;52.562;13.418;2022-09-24T00:13:52;100554.00;;;16.50
22828;BMP180;11580;52.562;13.418;2022-09-24T00:16:23;100559.00;;;16.50
22828;BMP180;11580;52.562;13.418;2022-09-24T00:18:50;100550.00;;;16.40
22828;BMP180;11580;52.562;13.418;2022-09-24T00:21:21;100566.00;;;16.40
22828;BMP180;11580;52.562;13.418;2022-09-24T00:23:53;100560.00;;;16.40
22828;BMP180;11580;52.562;13.418;2022-09-24T00:26:21;100553.00;;;16.30
22828;BMP180;11580;52.562;13.418;2022-09-24T00:29:07;100552.00;;;16.30
22828;BMP180;11580;52.562;13.418;2022-09-24T00:31:35;100544.00;;;16.20
22828;BMP180;11580;52.562;13.418;2022-09-24T00:34:03;100535.00;;;16.20
22828;BMP180;11580;52.562;13.418;2022-09-24T00:36:31;100537.00;;;16.10
22828;BMP180;11580;52.562;13.418;2022-09-24T00:39:00;100538.00;;;16.10
22828;BMP180;11580;52.562;13.418;2022-09-24T00:41:30;100539.00;;;16.10
22828;BMP180;11580;52.562;13.418;2022-09-24T00:43:59;100527.00;;;16.00
22828;BMP180;11580;52.562;13.418;2022-09-24T00:46:31;100528.00;;;16.00
22828;BMP180;11580;52.562;13.418;2022-09-24T00:49:10;100519.00;;;15.90
22828;BMP180;11580;52.562;13.418;2022-09-24T00:51:40;100519.00;;;15.90
22828;BMP180;11580;52.562;13.418;2022-09-24T00:54:15;100515.00;;;15.90
22828;BMP180;11580;52.562;13.418;2022-09-24T00:56:48;100523.00;;;15.80
22828;BMP180;11580;52.562;13.418;2022-09-24T00:59:20;100503.00;;;15.80
22828;BMP180;11580;52.562;13.418;2022-09-24T01:01:49;100520.00;;;15.80
22828;BMP180;11580;52.562;13.418;2022-09-24T01:04:19;100518.00;;;15.70
22828;BMP180;11580;52.562;13.418;2022-09-24T01:06:47;100511.00;;;15.70
22828;BMP180;11580;52.562;13.418;2022-09-24T01:09:18;100508.00;;;15.70
22828;BMP180;11580;52.562;13.418;2022-09-24T01:11:57;100513.00;;;15.70
22828;BMP180;11580;52.562;13.418;2022-09-24T01:14:55;100508.00;;;15.60
22828;BMP180;11580;52.562;13.418;2022-09-24T01:17:34;100507.00;;;15.60
22828;BMP180;11580;52.562;13.418;2022-09-24T01:20:52;100507.00;;;15.60
22828;BMP180;11580;52.562;13.418;2022-09-24T01:26:56;100495.00;;;15.60
22828;BMP180;11580;52.562;13.418;2022-09-24T01:29:36;100496.00;;;15.70
22828;BMP180;11580;52.562;13.418;2022-09-24T01:32:13;100499.00;;;15.70
22828;BMP180;11580;52.562;13.418;2022-09-24T01:34:48;100489.00;;;15.70
22828;BMP180;11580;52.562;13.418;2022-09-24T01:37:20;100501.00;;;15.80
22828;BMP180;11580;52.562;13.418;2022-09-24T01:39:52;100492.00;;;15.80
22828;BMP180;11580;52.562;13.418;2022-09-24T01:42:22;100494.00;;;15.80
22828;BMP180;11580;52.562;13.418;2022-09-24T01:44:54;100493.00;;;15.90
22828;BMP180;11580;52.562;13.418;2022-09-24T01:47:30;100483.00;;;15.90
22828;BMP180;11580;52.562;13.418;2022-09-24T01:49:58;100480.00;;;15.90
22828;BMP180;11580;52.562;13.418;2022-09-24T01:52:34;100484.00;;;15.90
22828;BMP180;11580;52.562;13.418;2022-09-24T01:55:06;100477.00;;;16.00
22828;BMP180;11580;52.562;13.418;2022-09-24T01:57:39;100478.00;;;16.00
22828;BMP180;11580;52.562;13.418;2022-09-24T02:00:14;100471.00;;;16.00
22828;BMP180;11580;52.562;13.418;2022-09-24T02:02:46;100468.00;;;16.00
22828;BMP180;11580;52.562;13.418;2022-09-24T02:05:21;100478.00;;;16.10
22828;BMP180;11580;52.562;13.418;2022-09-24T02:07:57;100467.00;;;16.10
22828;BMP180;11580;52.562;13.418;2022-09-24T02:10:33;100468.00;;;16.10
22828;BMP180;11580;52.562;13.418;2022-09-24T02:13:09;100468.00;;;16.10
22828;BMP180;11580;52.562;13.418;2022-09-24T02:15:44;100473.00;;;16.10
22828;BMP180;11580;52.562;13.418;2022-09-24T02:18:16;100469.00;;;16.20
22828;BMP180;11580;52.562;13.418;2022-09-24T02:20:47;100463.00;;;16.10
22828;BMP180;11580;52.562;13.418;2022-09-24T02:23:16;100467.00;;;16.20
22828;BMP180;11580;52.562;13.418;2022-09-24T02:25:49;100473.00;;;16.20
22828;BMP180;11580;52.562;13.418;2022-09-24T02:28:18;100458.00;;;16.20
22828;BMP180;11580;52.562;13.418;2022-09-24T02:30:52;100462.00;;;16.20
22828;BMP180;11580;52.562;13.418;2022-09-24T02:33:22;100461.00;;;16.20
22828;BMP180;11580;52.562;13.418;2022-09-24T02:36:08;100459.00;;;16.20
22828;BMP180;11580;52.562;13.418;2022-09-24T02:38:36;100459.00;;;16.20
22828;BMP180;11580;52.562;13.418;2022-09-24T02:41:05;100460.00;;;16.20
22828;BMP180;11580;52.562;13.418;2022-09-24T02:43:33;100448.00;;;16.30
22828;BMP180;11580;52.562;13.418;2022-09-24T02:46:02;100457.00;;;16.30
22828;BMP180;11580;52.562;13.418;2022-09-24T02:48:30;100450.00;;;16.30
22828;BMP180;11580;52.562;13.418;2022-09-24T02:50:57;100455.00;;;16.30
22828;BMP180;11580;52.562;13.418;2022-09-24T02:53:24;100447.00;;;16.30
22828;BMP180;11580;52.562;13.418;2022-09-24T02:55:51;100448.00;;;16.30
22828;BMP180;11580;52.562;13.418;2022-09-24T02:58:18;100449.00;;;16.30
22828;BMP180;11580;52.562;13.418;2022-09-24T03:00:46;100446.00;;;16.30
22828;BMP180;11580;52.562;13.418;2022-09-24T03:03:14;100455.00;;;16.40
22828;BMP180;11580;52.562;13.418;2022-09-24T03:05:41;100448.00;;;16.40
22828;BMP180;11580;52.562;13.418;2022-09-24T03:08:09;100443.00;;;16.40
22828;BMP180;11580;52.562;13.418;2022-09-24T03:10:36;100453.00;;;16.40
22828;BMP180;11580;52.562;13.418;2022-09-24T03:13:04;100459.00;;;16.40
22828;BMP180;11580;52.562;13.418;2022-09-24T03:15:31;100449.00;;;16.40
22828;BMP180;11580;52.562;13.418;2022-09-24T03:17:59;100450.00;;;16.40
22828;BMP180;11580;52.562;13.418;2022-09-24T03:20:27;100447.00;;;16.40
22828;BMP180;11580;52.562;13.418;2022-09-24T03:22:55;100458.00;;;16.40
22828;BMP180;11580;52.562;13.418;2022-09-24T03:25:22;100444.00;;;16.40
22828;BMP180;11580;52.562;13.418;2022-09-24T03:27:50;100434.00;;;16.40
22828;BMP180;11580;52.562;13.418;2022-09-24T03:30:17;100449.00;;;16.40
22828;BMP180;11580;52.562;13.418;2022-09-24T03:33:02;100444.00;;;16.30
22828;BMP180;11580;52.562;13.418;2022-09-24T03:35:30;100450.00;;;16.30
22828;BMP180;11580;52.562;13.418;2022-09-24T03:37:58;100438.00;;;16.30
22828;BMP180;11580;52.562;13.418;2022-09-24T03:40:25;100433.00;;;16.30
22828;BMP180;11580;52.562;13.418;2022-09-24T03:42:52;100443.00;;;16.30
22828;BMP180;11580;52.562;13.418;2022-09-24T03:45:19;100426.00;;;16.30
22828;BMP180;11580;52.562;13.418;2022-09-24T03:47:46;100441.00;;;16.30
22828;BMP180;11580;52.562;13.418;2022-09-24T03:50:14;100439.00;;;16.30
22828;BMP180;11580;52.562;13.418;2022-09-24T03:52:43;100438.00;;;16.30
22828;BMP180;11580;52.562;13.418;2022-09-24T03:55:10;100436.00;;;16.30
22828;BMP180;11580;52.562;13.418;2022-09-24T03:57:37;100430.00;;;16.30
22828;BMP180;11580;52.562;13.418;2022-09-24T04:00:06;100428.00;;;16.30
22828;BMP180;11580;52.562;13.418;2022-09-24T04:02:33;100418.00;;;16.30
22828;BMP180;11580;52.562;13.418;2022-09-24T04:05:01;100421.00;;;16.30
22828;BMP180;11580;52.562;13.418;2022-09-24T04:07:28;100423.00;;;16.30
22828;BMP180;11580;52.562;13.418;2022-09-24T04:09:56;100424.00;;;16.30
22828;BMP180;11580;52.562;13.418;2022-09-24T04:12:23;100418.00;;;16.30
22828;BMP180;11580;52.562;13.418;2022-09-24T04:14:51;100420.00;;;16.20
22828;BMP180;11580;52.562;13.418;2022-09-24T04:17:18;100410.00;;;16.20
22828;BMP180;11580;52.562;13.418;2022-09-24T04:19:45;100412.00;;;16.20
22828;BMP180;11580;52.562;13.418;2022-09-24T04:22:12;100410.00;;;16.20
22828;BMP180;11580;52.562;13.418;2022-09-24T04:24:39;100410.00;;;16.20
22828;BMP180;11580;52.562;13.418;2022-09-24T04:27:08;100411.00;;;16.20
22828;BMP180;11580;52.562;13.418;2022-09-24T04:29:35;100413.00;;;16.20
22828;BMP180;11580;52.562;13.418;2022-09-24T04:32:02;100413.00;;;16.20
22828;BMP180;11580;52.562;13.418;2022-09-24T04:34:29;100386.00;;;16.20
22828;BMP180;11580;52.562;13.418;2022-09-24T04:36:58;100407.00;;;16.20
22828;BMP180;11580;52.562;13.418;2022-09-24T04:39:25;100408.00;;;16.20
22828;BMP180;11580;52.562;13.418;2022-09-24T04:41:53;100405.00;;;16.20
22828;BMP180;11580;52.562;13.418;2022-09-24T04:44:21;100413.00;;;16.20
22828;BMP180;11580;52.562;13.418;2022-09-24T04:46:49;100405.00;;;16.20
22828;BMP180;11580;52.562;13.418;2022-09-24T04:49:16;100404.00;;;16.20
22828;BMP180;11580;52.562;13.418;2022-09-24T04:51:43;100411.00;;;16.20
22828;BMP180;11580;52.562;13.418;2022-09-24T04:54:11;100421.00;;;16.20
22828;BMP180;11580;52.562;13.418;2022-09-24T04:56:38;100419.00;;;16.20
22828;BMP180;11580;52.562;13.418;2022-09-24T04:59:05;100428.00;;;16.20
22828;BMP180;11580;52.562;13.418;2022-09-24T05:01:34;100423.00;;;16.20
22828;BMP180;11580;52.562;13.418;2022-09-24T05:04:01;100422.00;;;16.20
22828;BMP180;11580;52.562;13.418;2022-09-24T05:06:29;100425.00;;;16.20
22828;BMP180;11580;52.562;13.418;2022-09-24T05:08:56;100418.00;;;16.30
22828;BMP180;11580;52.562;13.418;2022-09-24T05:11:23;100424.00;;;16.30
22828;BMP180;11580;52.562;13.418;2022-09-24T05:13:50;100421.00;;;16.30
22828;BMP180;11580;52.562;13.418;2022-09-24T05:16:17;100419.00;;;16.30
22828;BMP180;11580;52.562;13.418;2022-09-24T05:18:46;100425.00;;;16.30
22828;BMP180;11580;52.562;13.418;2022-09-24T05:21:13;100423.00;;;16.30
22828;BMP180;11580;52.562;13.418;2022-09-24T05:23:41;100425.00;;;16.30
22828;BMP180;11580;52.562;13.418;2022-09-24T05:26:08;100425.00;;;16.30
22828;BMP180;11580;52.562;13.418;2022-09-24T05:28:52;100414.00;;;16.30
22828;BMP180;11580;52.562;13.418;2022-09-24T05:31:19;100423.00;;;16.30
22828;BMP180;11580;52.562;13.418;2022-09-24T05:33:48;100427.00;;;16.30
22828;BMP180;11580;52.562;13.418;2022-09-24T05:36:16;100423.00;;;16.30
22828;BMP180;11580;52.562;13.418;2022-09-24T05:38:44;100415.00;;;16.30
22828;BMP180;11580;52.562;13.418;2022-09-24T05:41:11;100427.00;;;16.40
22828;BMP180;11580;52.562;13.418;2022-09-24T05:43:38;100425.00;;;16.40
22828;BMP180;11580;52.562;13.418;2022-09-24T05:46:06;100419.00;;;16.40
22828;BMP180;11580;52.562;13.418;2022-09-24T05:48:33;100415.00;;;16.40
22828;BMP180;11580;52.562;13.418;2022-09-24T05:51:02;100425.00;;;16.50
22828;BMP180;11580;52.562;13.418;2022-09-24T05:53:30;100422.00;;;16.50
22828;BMP180;11580;52.562;13.418;2022-09-24T05:55:57;100422.00;;;16.50
22828;BMP180;11580;52.562;13.418;2022-09-24T05:58:24;100425.00;;;16.60
22828;BMP180;11580;52.562;13.418;2022-09-24T06:00:52;100421.00;;;16.60
22828;BMP180;11580;52.562;13.418;2022-09-24T06:03:19;100422.00;;;16.60
22828;BMP180;11580;52.562;13.418;2022-09-24T06:05:49;100434.00;;;16.60
22828;BMP180;11580;52.562;13.418;2022-09-24T06:08:19;100439.00;;;16.70
22828;BMP180;11580;52.562;13.418;2022-09-24T06:10:47;100429.00;;;16.80
22828;BMP180;11580;52.562;13.418;2022-09-24T06:13:17;100403.00;;;16.80
22828;BMP180;11580;52.562;13.418;2022-09-24T06:15:46;100440.00;;;16.90
22828;BMP180;11580;52.562;13.418;2022-09-24T06:18:13;100437.00;;;16.90
22828;BMP180;11580;52.562;13.418;2022-09-24T06:20:40;100438.00;;;16.90
22828;BMP180;11580;52.562;13.418;2022-09-24T06:23:07;100437.00;;;17.00
22828;BMP180;11580;52.562;13.418;2022-09-24T06:25:36;100441.00;;;17.00
22828;BMP180;11580;52.562;13.418;2022-09-24T06:28:04;100447.00;;;17.00
22828;BMP180;11580;52.562;13.418;2022-09-24T06:30:34;100440.00;;;17.10
22828;BMP180;11580;52.562;13.418;2022-09-24T06:33:04;100446.00;;;17.10
22828;BMP180;11580;52.562;13.418;2022-09-24T06:35:33;100438.00;;;17.20
22828;BMP180;11580;52.562;13.418;2022-09-24T06:38:02;100433.00;;;17.20
22828;BMP180;11580;52.562;13.418;2022-09-24T06:40:29;100434.00;;;17.30
22828;BMP180;11580;52.562;13.418;2022-09-24T06:42:58;100433.00;;;17.40
22828;BMP180;11580;52.562;13.418;2022-09-24T06:45:25;100439.00;;;17.40
22828;BMP180;11580;52.562;13.418;2022-09-24T06:47:53;100438.00;;;17.50
22828;BMP180;11580;52.562;13.418;2022-09-24T06:50:23;100438.00;;;17.60
22828;BMP180;11580;52.562;13.418;2022-09-24T06:52:50;100439.00;;;17.60
22828;BMP180;11580;52.562;13.418;2022-09-24T06:55:18;100437.00;;;17.70
22828;BMP180;11580;52.562;13.418;2022-09-24T06:57:45;100438.00;;;17.80
22828;BMP180;11580;52.562;13.418;2022-09-24T07:00:15;100432.00;;;17.90
22828;BMP180;11580;52.562;13.418;2022-09-24T07:02:42;100441.00;;;17.90
22828;BMP180;11580;52.562;13.418;2022-09-24T07:05:10;100430.00;;;18.00
22828;BMP180;11580;52.562;13.418;2022-09-24T07:07:37;100444.00;;;18.10
22828;BMP180;11580;52.562;13.418;2022-09-24T07:10:06;100445.00;;;18.20
22828;BMP180;11580;52.562;13.418;2022-09-24T07:12:34;100443.00;;;18.20
22828;BMP180;11580;52.562;13.418;2022-09-24T07:15:02;100466.00;;;18.30
22828;BMP180;11580;52.562;13.418;2022-09-24T07:17:31;100462.00;;;18.30
22828;BMP180;11580;52.562;13.418;2022-09-24T07:19:58;100460.00;;;18.40
22828;BMP180;11580;52.562;13.418;2022-09-24T07:22:25;100468.00;;;18.40
22828;BMP180;11580;52.562;13.418;2022-09-24T07:24:52;100461.00;;;18.50
22828;BMP180;11580;52.562;13.418;2022-09-24T07:27:20;100467.00;;;18.50
22828;BMP180;11580;52.562;13.418;2022-09-24T07:29:47;100459.00;;;18.60
22828;BMP180;11580;52.562;13.418;2022-09-24T07:32:15;100472.00;;;18.60
22828;BMP180;11580;52.562;13.418;2022-09-24T07:34:44;100474.00;;;18.70
22828;BMP180;11580;52.562;13.418;2022-09-24T07:37:11;100471.00;;;18.80
22828;BMP180;11580;52.562;13.418;2022-09-24T07:39:39;100470.00;;;18.90
22828;BMP180;11580;52.562;13.418;2022-09-24T07:42:06;100478.00;;;19.00
22828;BMP180;11580;52.562;13.418;2022-09-24T07:44:33;100477.00;;;19.10
22828;BMP180;11580;52.562;13.418;2022-09-24T07:47:01;100468.00;;;19.20
22828;BMP180;11580;52.562;13.418;2022-09-24T07:49:28;100476.00;;;19.30
22828;BMP180;11580;52.562;13.418;2022-09-24T07:51:59;100472.00;;;19.40
22828;BMP180;11580;52.562;13.418;2022-09-24T07:54:26;100472.00;;;19.50
22828;BMP180;11580;52.562;13.418;2022-09-24T07:56:55;100477.00;;;19.60
22828;BMP180;11580;52.562;13.418;2022-09-24T07:59:22;100480.00;;;19.70
22828;BMP180;11580;52.562;13.418;2022-09-24T08:01:50;100456.00;;;19.80
22828;BMP180;11580;52.562;13.418;2022-09-24T08:04:17;100479.00;;;20.00
22828;BMP180;11580;52.562;13.418;2022-09-24T08:06:44;100476.00;;;20.00
22828;BMP180;11580;52.562;13.418;2022-09-24T08:09:15;100458.00;;;20.10
22828;BMP180;11580;52.562;13.418;2022-09-24T08:11:42;100486.00;;;20.20
22828;BMP180;11580;52.562;13.418;2022-09-24T08:14:09;100486.00;;;20.30
22828;BMP180;11580;52.562;13.418;2022-09-24T08:16:37;100493.00;;;20.40
22828;BMP180;11580;52.562;13.418;2022-09-24T08:19:05;100478.00;;;20.40
22828;BMP180;11580;52.562;13.418;2022-09-24T08:21:38;100489.00;;;20.50
22828;BMP180;11580;52.562;13.418;2022-09-24T08:24:05;100484.00;;;20.60
22828;BMP180;11580;52.562;13.418;2022-09-24T08:26:34;100486.00;;;20.60
22828;BMP180;11580;52.562;13.418;2022-09-24T08:29:01;100488.00;;;20.70
22828;BMP180;11580;52.562;13.418;2022-09-24T08:31:28;100486.00;;;20.70
22828;BMP180;11580;52.562;13.418;2022-09-24T08:33:56;100488.00;;;20.80
22828;BMP180;11580;52.562;13.418;2022-09-24T08:36:23;100491.00;;;20.80
22828;BMP180;11580;52.562;13.418;2022-09-24T08:38:52;100487.00;;;20.90
22828;BMP180;11580;52.562;13.418;2022-09-24T08:41:39;100493.00;;;21.00
22828;BMP180;11580;52.562;13.418;2022-09-24T08:44:17;100493.00;;;21.10
22828;BMP180;11580;52.562;13.418;2022-09-24T08:47:16;100493.00;;;21.10
22828;BMP180;11580;52.562;13.418;2022-09-24T08:53:10;100502.00;;;21.30
22828;BMP180;11580;52.562;13.418;2022-09-24T08:55:41;100505.00;;;21.40
22828;BMP180;11580;52.562;13.418;2022-09-24T08:58:30;100508.00;;;21.50
22828;BMP180;11580;52.562;13.418;2022-09-24T09:01:11;100506.00;;;21.50
22828;BMP180;11580;52.562;13.418;2022-09-24T09:03:45;100498.00;;;21.60
22828;BMP180;11580;52.562;13.418;2022-09-24T09:06:46;100497.00;;;21.70
22828;BMP180;11580;52.562;13.418;2022-09-24T09:09:19;100505.00;;;21.80
22828;BMP180;11580;52.562;13.418;2022-09-24T09:11:51;100506.00;;;21.90
22828;BMP180;11580;52.562;13.418;2022-09-24T09:14:33;100508.00;;;22.00
22828;BMP180;11580;52.562;13.418;2022-09-24T09:17:12;100504.00;;;22.10
22828;BMP180;11580;52.562;13.418;2022-09-24T09:19:52;100500.00;;;22.20
22828;BMP180;11580;52.562;13.418;2022-09-24T09:22:25;100513.00;;;22.30
22828;BMP180;11580;52.562;13.418;2022-09-24T09:24:58;100506.00;;;22.40
22828;BMP180;11580;52.562;13.418;2022-09-24T09:27:27;100511.00;;;22.60
22828;BMP180;11580;52.562;13.418;2022-09-24T09:29:59;100511.00;;;22.70
22828;BMP180;11580;52.562;13.418;2022-09-24T09:32:44;100514.00;;;22.90
22828;BMP180;11580;52.562;13.418;2022-09-24T09:35:21;100507.00;;;23.00
22828;BMP180;11580;52.562;13.418;2022-09-24T09:38:02;100502.00;;;23.20
22828;BMP180;11580;52.562;13.418;2022-09-24T09:40:40;100498.00;;;23.30
22828;BMP180;11580;52.562;13.418;2022-09-24T09:43:12;100509.00;;;23.50
22828;BMP180;11580;52.562;13.418;2022-09-24T09:45:50;100509.00;;;23.60
22828;BMP180;11580;52.562;13.418;2022-09-24T09:48:27;100505.00;;;23.70
22828;BMP180;11580;52.562;13.418;2022-09-24T09:50:59;100507.00;;;23.80
22828;BMP180;11580;52.562;13.418;2022-09-24T09:53:30;100497.00;;;23.90
22828;BMP180;11580;52.562;13.418;2022-09-24T09:56:00;100507.00;;;23.90
22828;BMP180;11580;52.562;13.418;2022-09-24T09:58:31;100510.00;;;24.00
22828;BMP180;11580;52.562;13.418;2022-09-24T10:01:07;100503.00;;;24.10
22828;BMP180;11580;52.562;13.418;2022-09-24T10:03:47;100504.00;;;24.10
22828;BMP180;11580;52.562;13.418;2022-09-24T10:06:24;100506.00;;;24.10
22828;BMP180;11580;52.562;13.418;2022-09-24T10:08:51;100507.00;;;24.10
22828;BMP180;11580;52.562;13.418;2022-09-24T10:11:21;100505.00;;;24.10
22828;BMP180;11580;52.562;13.418;2022-09-24T10:14:01;100504.00;;;24.10
22828;BMP180;11580;52.562;13.418;2022-09-24T10:16:37;100505.00;;;24.10
22828;BMP180;11580;52.562;13.418;2022-09-24T10:19:17;100500.00;;;24.10
22828;BMP180;11580;52.562;13.418;2022-09-24T10:21:45;100504.00;;;24.00
22828;BMP180;11580;52.562;13.418;2022-09-24T10:24:17;100495.00;;;24.00
22828;BMP180;11580;52.562;13.418;2022-09-24T10:26:47;100498.00;;;23.90
22828;BMP180;11580;52.562;13.418;2022-09-24T10:29:17;100504.00;;;23.90
22828;BMP180;11580;52.562;13.418;2022-09-24T10:32:05;100501.00;;;23.90
22828;BMP180;11580;52.562;13.418;2022-09-24T10:34:39;100502.00;;;23.90
22828;BMP180;11580;52.562;13.418;2022-09-24T10:37:14;100509.00;;;23.90
22828;BMP180;11580;52.562;13.418;2022-09-24T10:39:43;100509.00;;;23.90
22828;BMP180;11580;52.562;13.418;2022-09-24T10:42:23;100506.00;;;23.90
22828;BMP180;11580;52.562;13.418;2022-09-24T10:44:50;100496.00;;;23.90
22828;BMP180;11580;52.562;13.418;2022-09-24T10:47:32;100505.00;;;23.90
22828;BMP180;11580;52.562;13.418;2022-09-24T10:50:22;100505.00;;;23.90
22828;BMP180;11580;52.562;13.418;2022-09-24T10:52:56;100504.00;;;23.80
22828;BMP180;11580;52.562;13.418;2022-09-24T10:55:40;100494.00;;;23.80
22828;BMP180;11580;52.562;13.418;2022-09-24T10:58:30;100505.00;;;23.80
22828;BMP180;11580;52.562;13.418;2022-09-24T11:01:13;100502.00;;;23.80
22828;BMP180;11580;52.562;13.418;2022-09-24T11:04:04;100510.00;;;23.90
22828;BMP180;11580;52.562;13.418;2022-09-24T11:06:54;100505.00;;;23.90
22828;BMP180;11580;52.562;13.418;2022-09-24T11:09:35;100510.00;;;23.90
22828;BMP180;11580;52.562;13.418;2022-09-24T11:12:14;100502.00;;;23.90
22828;BMP180;11580;52.562;13.418;2022-09-24T11:15:08;100507.00;;;23.90
22828;BMP180;11580;52.562;13.418;2022-09-24T11:17:50;100508.00;;;24.00
22828;BMP180;11580;52.562;13.418;2022-09-24T11:20:32;100515.00;;;24.00
22828;BMP180;11580;52.562;13.418;2022-09-24T11:23:31;100503.00;;;24.00
22828;BMP180;11580;52.562;13.418;2022-09-24T11:26:16;100493.00;;;24.00
22828;BMP180;11580;52.562;13.418;2022-09-24T11:32:10;100499.00;;;24.10
22828;BMP180;11580;52.562;13.418;2022-09-24T11:35:16;100503.00;;;24.10
22828;BMP180;11580;52.562;13.418;2022-09-24T11:37:58;100492.00;;;24.20
22828;BMP180;11580;52.562;13.418;2022-09-24T11:40:58;100492.00;;;24.30
22828;BMP180;11580;52.562;13.418;2022-09-24T11:44:10;100495.00;;;24.40
22828;BMP180;11580;52.562;13.418;2022-09-24T11:47:02;100494.00;;;24.50
22828;BMP180;11580;52.562;13.418;2022-09-24T11:49:53;100490.00;;;24.60
22828;BMP180;11580;52.562;13.418;2022-09-24T11:52:34;100496.00;;;24.60
22828;BMP180;11580;52.562;13.418;2022-09-24T11:55:12;100500.00;;;24.70
22828;BMP180;11580;52.562;13.418;2022-09-24T11:57:45;100493.00;;;24.80
22828;BMP180;11580;52.562;13.418;2022-09-24T12:00:17;100497.00;;;24.90
22828;BMP180;11580;52.562;13.418;2022-09-24T12:02:49;100502.00;;;25.00
22828;BMP180;11580;52.562;13.418;2022-09-24T12:05:27;100509.00;;;25.00
22828;BMP180;11580;52.562;13.418;2022-09-24T12:07:59;100512.00;;;25.10
22828;BMP180;11580;52.562;13.418;2022-09-24T12:10:36;100497.00;;;25.10
22828;BMP180;11580;52.562;13.418;2022-09-24T12:13:15;100505.00;;;25.20
22828;BMP180;11580;52.562;13.418;2022-09-24T12:15:51;100506.00;;;25.20
22828;BMP180;11580;52.562;13.418;2022-09-24T12:18:25;100504.00;;;25.30
22828;BMP180;11580;52.562;13.418;2022-09-24T12:20:58;100513.00;;;25.30
22828;BMP180;11580;52.562;13.418;2022-09-24T12:23:31;100501.00;;;25.40
22828;BMP180;11580;52.562;13.418;2022-09-24T12:26:04;100503.00;;;25.50
22828;BMP180;11580;52.562;13.418;2022-09-24T12:28:41;100510.00;;;25.50
22828;BMP180;11580;52.562;13.418;2022-09-24T12:31:33;100506.00;;;25.60
22828;BMP180;11580;52.562;13.418;2022-09-24T12:34:36;100503.00;;;25.60
22828;BMP180;11580;52.562;13.418;2022-09-24T12:37:11;100500.00;;;25.60
22828;BMP180;11580;52.562;13.418;2022-09-24T12:39:46;100505.00;;;25.60
22828;BMP180;11580;52.562;13.418;2022-09-24T12:42:20;100506.00;;;25.50
22828;BMP180;11580;52.562;13.418;2022-09-24T12:44:54;100507.00;;;25.50
22828;BMP180;11580;52.562;13.418;2022-09-24T12:47:26;100499.00;;;25.40
22828;BMP180;11580;52.562;13.418;2022-09-24T12:49:57;100499.00;;;25.40
22828;BMP180;11580;52.562;13.418;2022-09-24T12:52:31;100501.00;;;25.30
22828;BMP180;11580;52.562;13.418;2022-09-24T12:55:04;100497.00;;;25.30
22828;BMP180;11580;52.562;13.418;2022-09-24T12:57:36;100496.00;;;25.30
22828;BMP180;11580;52.562;13.418;2022-09-24T13:00:39;100499.00;;;25.20
22828;BMP180;11580;52.562;13.418;2022-09-24T13:03:33;100483.00;;;25.20
22828;BMP180;11580;52.562;13.418;2022-09-24T13:06:01;100497.00;;;25.20
22828;BMP180;11580;52.562;13.418;2022-09-24T13:08:36;100497.00;;;25.20
22828;BMP180;11580;52.562;13.418;2022-09-24T13:11:28;100502.00;;;25.20
22828;BMP180;11580;52.562;13.418;2022-09-24T13:14:07;100501.00;;;25.20
22828;BMP180;11580;52.562;13.418;2022-09-24T13:16:46;100494.00;;;25.30
22828;BMP180;11580;52.562;13.418;2022-09-24T13:19:33;100500.00;;;25.30
22828;BMP180;11580;52.562;13.418;2022-09-24T13:22:02;100484.00;;;25.30
22828;BMP180;11580;52.562;13.418;2022-09-24T13:24:33;100492.00;;;25.40
22828;BMP180;11580;52.562;13.418;2022-09-24T13:27:33;100499.00;;;25.40
22828;BMP180;11580;52.562;13.418;2022-09-24T13:30:15;100489.00;;;25.30
22828;BMP180;11580;52.562;13.418;2022-09-24T13:32:50;100489.00;;;25.30
22828;BMP180;11580;52.562;13.418;2022-09-24T13:35:26;100490.00;;;25.20
22828;BMP180;11580;52.562;13.418;2022-09-24T13:38:04;100489.00;;;25.20
22828;BMP180;11580;52.562;13.418;2022-09-24T13:40:38;100471.00;;;25.10
22828;BMP180;11580;52.562;13.418;2022-09-24T13:43:14;100491.00;;;25.00
22828;BMP180;11580;52.562;13.418;2022-09-24T13:45:44;100488.00;;;24.90
22828;BMP180;11580;52.562;13.418;2022-09-24T13:48:27;100493.00;;;24.90
22828;BMP180;11580;52.562;13.418;2022-09-24T13:50:58;100489.00;;;24.80
22828;BMP180;11580;52.562;13.418;2022-09-24T13:53:31;100488.00;;;24.80
22828;BMP180;11580;52.562;13.418;2022-09-24T13:56:03;100486.00;;;24.70
22828;BMP180;11580;52.562;13.418;2022-09-24T13:58:34;100486.00;;;24.70
22828;BMP180;11580;52.562;13.418;2022-09-24T14:01:10;100471.00;;;24.70
22828;BMP180;11580;52.562;13.418;2022-09-24T14:03:38;100476.00;;;24.60
22828;BMP180;11580;52.562;13.418;2022-09-24T14:06:13;100477.00;;;24.50
22828;BMP180;11580;52.562;13.418;2022-09-24T14:08:44;100477.00;;;24.40
22828;BMP180;11580;52.562;13.418;2022-09-24T14:11:16;100483.00;;;24.40
22828;BMP180;11580;52.562;13.418;2022-09-24T14:13:44;100482.00;;;24.30
22828;BMP180;11580;52.562;13.418;2022-09-24T14:16:15;100480.00;;;24.20
22828;BMP180;11580;52.562;13.418;2022-09-24T14:18:43;100465.00;;;24.20
22828;BMP180;11580;52.562;13.418;2022-09-24T14:21:16;100477.00;;;24.10
22828;BMP180;11580;52.562;13.418;2022-09-24T14:23:49;100473.00;;;24.00
22828;BMP180;11580;52.562;13.418;2022-09-24T14:26:27;100476.00;;;23.90